Time;durP1;ratioP1;P1;durP2;ratioP2;P2;SDS_P1;SDS_P2;PMS_P1;PMS_P2;Temp;Humidity;BMP_temperature;BMP_pressure;BME280_temperature;BME280_humidity;BME280_pressure;Samples;Min_cycle;Max_cycle;Signal;HPM_P1;HPM_P2
2022/02/13 00:02:09;;;;;;;18.30;9.30;;;;;;;-0.18;80.03;102496.85;1770847;80;21200;-64
2022/02/13 00:05:16;;;;;;;16.50;8.53;;;;;;;-0.17;79.94;102501.30;1771026;79;21212;-65
2022/02/13 00:08:25;;;;;;;25.35;10.65;;;;;;;-0.16;79.85;102503.07;1770423;81;21335;-65
2022/02/13 00:11:32;;;;;;;26.97;11.60;;;;;;;-0.15;79.74;102499.43;1770538;81;21189;-65
2022/02/13 00:14:38;;;;;;;18.55;9.45;;;;;;;-0.15;79.64;102503.47;1770260;79;21228;-65
2022/02/13 00:17:44;;;;;;;23.80;10.90;;;;;;;-0.16;79.54;102499.88;1767787;80;21726;-65
2022/02/13 00:20:53;;;;;;;19.05;9.85;;;;;;;-0.15;79.46;102500.32;1769953;79;21228;-65
2022/02/13 00:23:58;;;;;;;20.27;11.00;;;;;;;-0.15;79.32;102503.47;1770393;79;21315;-65
2022/02/13 00:27:03;;;;;;;23.18;11.88;;;;;;;-0.17;79.26;102498.59;1770676;80;21331;-65
2022/02/13 00:30:11;;;;;;;26.17;13.35;;;;;;;-0.17;79.23;102494.10;1770958;79;21376;-65
2022/02/13 00:33:16;;;;;;;29.32;13.88;;;;;;;-0.16;79.15;102501.72;1769097;80;21378;-65
2022/02/13 00:36:22;;;;;;;22.45;11.40;;;;;;;-0.18;79.07;102498.20;1770744;81;21309;-65
2022/02/13 00:39:27;;;;;;;18.92;10.15;;;;;;;-0.19;78.96;102497.80;1771204;79;21221;-64
2022/02/13 00:42:32;;;;;;;14.35;7.97;;;;;;;-0.24;78.84;102499.78;1771512;80;21240;-64
2022/02/13 00:45:38;;;;;;;14.38;8.20;;;;;;;-0.29;78.84;102503.98;1770432;79;21630;-64
2022/02/13 00:48:44;;;;;;;15.00;8.83;;;;;;;-0.32;78.82;102500.52;1763553;80;21236;-64
2022/02/13 00:51:51;;;;;;;13.62;8.03;;;;;;;-0.36;78.77;102504.23;1771279;80;21383;-64
2022/02/13 00:54:57;;;;;;;16.62;9.65;;;;;;;-0.41;78.81;102499.02;1771198;79;21221;-64
2022/02/13 00:58:02;;;;;;;12.47;8.33;;;;;;;-0.43;78.83;102494.64;1770699;81;21175;-64
2022/02/13 01:01:08;;;;;;;14.63;7.83;;;;;;;-0.43;78.90;102487.43;1770724;79;21201;-64
2022/02/13 01:04:16;;;;;;;11.33;7.10;;;;;;;-0.44;78.93;102486.14;1763395;79;21212;-64
2022/02/13 01:07:21;;;;;;;11.93;7.58;;;;;;;-0.43;78.98;102479.36;1771190;80;21209;-65
2022/02/13 01:10:27;;;;;;;11.22;7.08;;;;;;;-0.42;78.95;102482.94;1770671;79;21485;-65
2022/02/13 01:13:35;;;;;;;14.58;7.50;;;;;;;-0.41;78.84;102475.27;1771476;80;21371;-64
2022/02/13 01:16:39;;;;;;;16.23;9.55;;;;;;;-0.44;78.66;102484.80;1771374;79;21216;-64
2022/02/13 01:19:47;;;;;;;21.27;10.28;;;;;;;-0.48;78.44;102484.51;1771261;79;21352;-64
2022/02/13 01:22:52;;;;;;;20.70;10.60;;;;;;;-0.56;78.28;102487.48;1770578;80;21595;-65
2022/02/13 01:25:58;;;;;;;20.50;10.98;;;;;;;-0.63;78.18;102484.58;1770769;79;21371;-64
2022/02/13 01:29:06;;;;;;;21.85;9.53;;;;;;;-0.66;78.29;102482.45;1771454;79;21571;-64
2022/02/13 01:32:13;;;;;;;16.93;9.98;;;;;;;-0.71;78.16;102492.48;1771135;80;21386;-64
2022/02/13 01:35:18;;;;;;;15.70;9.63;;;;;;;-0.77;78.13;102495.39;1771659;79;21205;-65
2022/02/13 01:38:23;;;;;;;15.63;9.28;;;;;;;-0.80;78.30;102496.39;1733145;82;21391;-64
2022/02/13 01:41:28;;;;;;;16.70;9.45;;;;;;;-0.79;78.57;102499.94;1740199;82;21343;-65
2022/02/13 01:44:40;;;;;;;12.35;7.95;;;;;;;-0.77;78.60;102495.39;1740356;81;21358;-64
2022/02/13 01:47:46;;;;;;;11.83;7.65;;;;;;;-0.82;78.41;102497.36;1740417;82;21343;-64
2022/02/13 01:50:56;;;;;;;12.75;7.80;;;;;;;-0.79;78.72;102498.59;1740446;81;21311;-64
2022/02/13 01:54:03;;;;;;;21.00;13.75;;;;;;;-0.78;78.85;102495.89;1715340;81;21204;-64
2022/02/13 01:57:10;;;;;;;18.62;11.55;;;;;;;-0.76;78.90;102498.52;1740359;82;21220;-65
2022/02/13 02:00:17;;;;;;;15.25;10.00;;;;;;;-0.73;78.99;102496.58;1740132;81;21967;-63
2022/02/13 02:03:22;;;;;;;14.13;8.25;;;;;;;-0.70;78.99;102499.16;1740002;82;21782;-64
2022/02/13 02:06:28;;;;;;;13.30;7.92;;;;;;;-0.67;78.87;102502.23;1740045;82;21303;-64
2022/02/13 02:09:34;;;;;;;13.70;8.20;;;;;;;-0.66;78.71;102512.04;1733011;81;21244;-63
2022/02/13 02:12:42;;;;;;;18.85;10.32;;;;;;;-0.67;78.57;102517.91;1740544;82;21204;-63
2022/02/13 02:15:48;;;;;;;12.98;8.48;;;;;;;-0.68;78.48;102513.92;1740420;81;21217;-62
2022/02/13 02:18:53;;;;;;;14.33;7.85;;;;;;;-0.68;78.45;102520.16;1739807;81;21348;-62
2022/02/13 02:21:58;;;;;;;13.98;8.10;;;;;;;-0.67;78.41;102512.98;1740569;82;21817;-62
2022/02/13 02:25:04;;;;;;;10.10;7.30;;;;;;;-0.67;78.39;102514.33;1740273;81;21232;-63
2022/02/13 02:28:09;;;;;;;12.20;8.15;;;;;;;-0.66;78.35;102510.69;1740390;82;21339;-62
2022/02/13 02:31:16;;;;;;;12.82;7.42;;;;;;;-0.68;78.23;102515.27;1740709;80;21204;-62
2022/02/13 02:34:22;;;;;;;12.78;8.80;;;;;;;-0.69;78.16;102513.48;1740445;81;21209;-61
2022/02/13 02:37:27;;;;;;;11.88;8.68;;;;;;;-0.71;78.09;102520.27;1740596;82;21228;-63
2022/02/13 02:40:32;;;;;;;15.75;9.80;;;;;;;-0.72;78.04;102535.11;1740477;81;21296;-62
2022/02/13 02:43:38;;;;;;;15.10;9.50;;;;;;;-0.74;78.00;102529.79;1740382;82;21264;-62
2022/02/13 02:46:45;;;;;;;14.25;8.50;;;;;;;-0.74;77.96;102530.24;1740367;82;21248;-63
2022/02/13 02:49:50;;;;;;;13.68;8.53;;;;;;;-0.76;77.92;102527.61;1741369;81;21342;-62
2022/02/13 02:52:56;;;;;;;15.72;9.10;;;;;;;-0.75;77.91;102530.73;1733975;82;21180;-61
2022/02/13 02:56:03;;;;;;;24.40;13.38;;;;;;;-0.75;77.86;102524.47;1740677;81;21844;-62
2022/02/13 02:59:08;;;;;;;37.83;18.57;;;;;;;-0.75;77.77;102532.53;1740352;81;21205;-61
2022/02/13 03:02:13;;;;;;;19.98;10.98;;;;;;;-0.75;77.68;102532.53;1740392;82;21351;-61
2022/02/13 03:05:19;;;;;;;20.52;10.70;;;;;;;-0.77;77.61;102531.69;1740460;81;21406;-61
2022/02/13 03:08:26;;;;;;;12.43;8.93;;;;;;;-0.77;77.61;102532.58;1740310;82;21212;-61
2022/02/13 03:11:33;;;;;;;13.45;7.80;;;;;;;-0.76;77.42;102530.78;1740618;82;21363;-62
2022/02/13 03:14:38;;;;;;;12.40;8.00;;;;;;;-0.80;77.25;102534.48;1740375;81;21358;-61
2022/02/13 03:17:44;;;;;;;9.80;6.65;;;;;;;-0.84;77.13;102540.42;1740709;82;21351;-60
2022/02/13 03:20:57;;;;;;;9.70;6.37;;;;;;;-0.89;77.05;102534.80;1740458;81;21363;-61
2022/02/13 03:24:07;;;;;;;18.30;10.23;;;;;;;-0.94;77.01;102544.38;1740617;81;21391;-61
2022/02/13 03:27:09;;;;;;;23.02;14.90;;;;;;;-0.94;77.15;102544.83;1740257;82;21240;-62
2022/02/13 03:30:15;;;;;;;26.85;17.57;;;;;;;-0.92;77.28;102549.70;1740213;81;21260;-61
2022/02/13 03:33:21;;;;;;;25.08;14.68;;;;;;;-0.89;77.31;102554.97;1739943;82;21334;-61
2022/02/13 03:36:27;;;;;;;25.32;15.40;;;;;;;-0.88;77.26;102552.23;1740420;82;21422;-61
2022/02/13 03:39:32;;;;;;;30.68;17.77;;;;;;;-0.87;77.12;102549.08;1740519;81;21840;-60
2022/02/13 03:42:38;;;;;;;30.90;17.50;;;;;;;-0.89;77.05;102542.88;1741637;82;21343;-62
2022/02/13 03:45:44;;;;;;;28.07;15.15;;;;;;;-0.88;76.97;102543.27;1740261;81;21201;-60
2022/02/13 03:48:50;;;;;;;20.75;12.70;;;;;;;-0.88;76.91;102537.89;1740772;82;21260;-61
2022/02/13 03:51:56;;;;;;;21.17;11.93;;;;;;;-0.87;76.91;102538.33;1740508;82;21354;-62
2022/02/13 03:55:01;;;;;;;28.77;15.95;;;;;;;-0.85;76.83;102536.45;1740693;81;21382;-62
2022/02/13 03:58:06;;;;;;;18.95;10.70;;;;;;;-0.86;76.65;102537.39;1740754;81;21221;-61
2022/02/13 04:01:13;;;;;;;15.78;8.80;;;;;;;-0.91;76.46;102544.72;1770771;80;21374;-61
2022/02/13 04:04:18;;;;;;;12.47;7.47;;;;;;;-0.99;76.28;102544.09;1770474;79;21193;-61
2022/02/13 04:07:24;;;;;;;14.75;7.87;;;;;;;-1.06;76.23;102545.23;1770801;80;21319;-61
2022/02/13 04:10:30;;;;;;;15.88;8.48;;;;;;;-1.08;76.36;102552.46;1770803;81;21284;-61
2022/02/13 04:13:37;;;;;;;43.85;23.02;;;;;;;-1.08;76.44;102557.84;1771218;80;21209;-61
2022/02/13 04:16:42;;;;;;;31.35;17.00;;;;;;;-1.09;76.52;102553.37;1770964;81;21170;-62
2022/02/13 04:19:48;;;;;;;33.95;17.05;;;;;;;-1.09;76.51;102552.03;1766557;80;21527;-61
2022/02/13 04:22:53;;;;;;;42.15;22.32;;;;;;;-1.10;76.53;102554.31;1746602;81;21343;-61
2022/02/13 04:25:59;;;;;;;32.25;16.90;;;;;;;-1.12;76.58;102555.70;1761858;81;21389;-61
2022/02/13 04:29:04;;;;;;;25.70;12.93;;;;;;;-1.11;76.65;102558.80;1763011;81;21413;-61
2022/02/13 04:32:11;;;;;;;45.75;23.27;;;;;;;-1.10;76.71;102557.00;1767922;81;21316;-62
2022/02/13 04:35:18;;;;;;;71.02;33.78;;;;;;;-1.08;76.72;102565.90;1772832;79;21422;-64
2022/02/13 04:38:24;;;;;;;136.60;58.13;;;;;;;-1.07;76.70;102571.22;1772945;80;21189;-62
2022/02/13 04:41:30;;;;;;;124.20;52.48;;;;;;;-1.09;76.59;102569.49;1772762;80;21706;-62
2022/02/13 04:44:36;;;;;;;78.00;32.70;;;;;;;-1.12;76.53;102574.97;1772909;79;21363;-61
2022/02/13 04:47:41;;;;;;;52.50;26.35;;;;;;;-1.12;76.53;102572.28;1772919;80;21742;-62
2022/02/13 04:50:47;;;;;;;51.88;26.00;;;;;;;-1.12;76.44;102572.28;1772812;79;21347;-61
2022/02/13 04:53:53;;;;;;;49.00;25.95;;;;;;;-1.13;76.36;102581.28;1773309;80;21332;-62
2022/02/13 04:57:01;;;;;;;58.52;29.98;;;;;;;-1.15;76.33;102569.70;1773392;80;21340;-62
2022/02/13 05:00:09;;;;;;;44.45;24.52;;;;;;;-1.16;76.27;102574.66;1770019;79;21700;-62
2022/02/13 05:03:16;;;;;;;28.95;17.10;;;;;;;-1.19;76.31;102568.91;1733660;82;21205;-62
2022/02/13 05:06:21;;;;;;;31.80;18.85;;;;;;;-1.19;76.43;102566.22;1741593;81;21402;-62
2022/02/13 05:09:27;;;;;;;32.42;19.45;;;;;;;-1.18;76.60;102569.80;1741660;81;21209;-61
2022/02/13 05:12:33;;;;;;;33.45;20.25;;;;;;;-1.15;76.73;102571.04;1742053;81;21216;-61
2022/02/13 05:15:39;;;;;;;21.48;13.40;;;;;;;-1.13;76.86;102568.73;1742226;81;21426;-63
2022/02/13 05:18:46;;;;;;;22.62;14.28;;;;;;;-1.07;76.95;102577.05;1742071;82;21346;-62
2022/02/13 05:21:56;;;;;;;18.95;12.37;;;;;;;-1.03;76.97;102582.77;1740270;81;21329;-61
2022/02/13 05:25:00;;;;;;;23.65;15.08;;;;;;;-1.02;77.00;102586.74;1740218;81;21264;-63
2022/02/13 05:28:07;;;;;;;23.73;14.35;;;;;;;-0.98;76.96;102581.67;1740377;82;21342;-62
2022/02/13 05:31:14;;;;;;;20.45;13.25;;;;;;;-0.95;76.96;102584.26;1740480;81;21821;-63
2022/02/13 05:34:19;;;;;;;22.30;12.80;;;;;;;-0.91;76.97;102582.36;1740622;81;21275;-62
2022/02/13 05:37:25;;;;;;;16.77;10.35;;;;;;;-0.89;76.99;102591.26;1739948;82;21259;-62
2022/02/13 05:40:30;;;;;;;18.67;11.15;;;;;;;-0.83;77.02;102595.09;1740229;81;21248;-62
2022/02/13 05:43:30;;;;;;;15.63;9.35;;;;;;;-0.80;77.01;102598.56;1739880;82;21169;-62
2022/02/13 05:46:35;;;;;;;14.10;8.48;;;;;;;-0.76;77.04;102598.00;1740277;82;21694;-63
2022/02/13 05:49:42;;;;;;;15.10;9.88;;;;;;;-0.74;77.08;102598.81;1739868;81;21220;-61
2022/02/13 05:52:51;;;;;;;18.02;10.32;;;;;;;-0.68;77.24;102595.95;1740368;82;21800;-63
2022/02/13 05:55:56;;;;;;;17.98;9.60;;;;;;;-0.64;77.37;102590.86;1740224;81;21283;-62
2022/02/13 05:59:01;;;;;;;19.05;10.78;;;;;;;-0.59;77.46;102594.28;1739888;81;21209;-62
2022/02/13 06:02:06;;;;;;;26.35;14.38;;;;;;;-0.55;77.59;102597.27;1740461;82;21189;-62
2022/02/13 06:05:13;;;;;;;28.92;16.40;;;;;;;-0.48;77.67;102598.84;1741176;81;21327;-62
2022/02/13 06:08:18;;;;;;;33.55;18.30;;;;;;;-0.41;77.75;102597.67;1769481;81;21370;-62
2022/02/13 06:11:24;;;;;;;44.67;22.17;;;;;;;-0.30;77.86;102595.50;1770822;80;21189;-63
2022/02/13 06:14:31;;;;;;;51.35;26.35;;;;;;;-0.23;77.87;102596.60;1770800;79;21252;-63
2022/02/13 06:17:36;;;;;;;27.50;16.17;;;;;;;-0.15;77.89;102601.70;1770876;80;21193;-62
2022/02/13 06:20:43;;;;;;;24.55;13.50;;;;;;;-0.07;77.85;102602.31;1770298;79;21220;-64
2022/02/13 06:23:52;;;;;;;20.97;12.78;;;;;;;-0.01;77.84;102609.72;1770394;78;21208;-61
2022/02/13 06:26:57;;;;;;;23.42;13.53;;;;;;;0.05;77.82;102606.40;1770681;80;21192;-62
2022/02/13 06:30:02;;;;;;;19.00;11.48;;;;;;;0.10;77.86;102613.81;1770006;79;21554;-63
2022/02/13 06:33:08;;;;;;;18.80;10.18;;;;;;;0.19;77.87;102617.55;1769859;81;21191;-62
2022/02/13 06:36:13;;;;;;;16.55;9.13;;;;;;;0.27;77.86;102604.19;1760489;81;21259;-62
2022/02/13 06:39:19;;;;;;;15.80;10.25;;;;;;;0.38;77.97;102597.94;1739411;81;21880;-63
2022/02/13 06:42:24;;;;;;;17.98;9.80;;;;;;;0.50;77.88;102596.14;1739847;82;21263;-62
2022/02/13 06:45:29;;;;;;;16.65;9.68;;;;;;;0.60;77.76;102600.72;1740065;81;21788;-62
2022/02/13 06:48:35;;;;;;;20.85;11.48;;;;;;;0.66;77.48;102600.02;1740168;82;21200;-61
2022/02/13 06:51:41;;;;;;;18.42;10.98;;;;;;;0.72;77.22;102597.53;1740454;82;21200;-63
2022/02/13 06:54:48;;;;;;;20.30;11.20;;;;;;;0.77;76.96;102603.64;1740486;81;21220;-62
2022/02/13 06:57:56;;;;;;;18.40;11.00;;;;;;;0.84;76.78;102606.02;1741003;82;21845;-63
2022/02/13 07:01:01;;;;;;;22.45;12.45;;;;;;;0.91;76.54;102610.71;1740488;81;21225;-62
2022/02/13 07:04:07;;;;;;;20.65;10.75;;;;;;;0.94;76.30;102603.84;1740499;81;21177;-62
2022/02/13 07:07:16;;;;;;;17.23;10.30;;;;;;;1.00;76.19;102604.48;1740220;82;21264;-63
2022/02/13 07:10:21;;;;;;;14.47;9.98;;;;;;;1.08;76.03;102607.75;1740283;81;21197;-62
2022/02/13 07:13:26;;;;;;;19.92;10.98;;;;;;;1.10;75.62;102607.23;1740413;82;21244;-64
2022/02/13 07:16:34;;;;;;;21.07;11.85;;;;;;;1.15;75.53;102611.09;1740401;82;21552;-62
2022/02/13 07:19:39;;;;;;;18.42;11.10;;;;;;;1.19;75.36;102611.39;1733120;81;21256;-62
2022/02/13 07:22:44;;;;;;;18.98;11.57;;;;;;;1.20;75.07;102606.39;1740216;82;21225;-61
2022/02/13 07:25:50;;;;;;;18.25;11.05;;;;;;;1.21;74.85;102599.58;1739653;81;21223;-61
2022/02/13 07:29:00;;;;;;;20.43;12.00;;;;;;;1.21;74.72;102602.74;1740823;81;21297;-62
2022/02/13 07:32:06;;;;;;;20.30;12.23;;;;;;;1.25;74.72;102601.20;1740389;82;21351;-62
2022/02/13 07:35:12;;;;;;;19.45;11.18;;;;;;;1.30;74.64;102604.59;1740315;81;21216;-63
2022/02/13 07:38:18;;;;;;;16.73;10.65;;;;;;;1.37;74.71;102603.41;1752581;81;21193;-63
2022/02/13 07:41:25;;;;;;;18.62;10.75;;;;;;;1.45;74.63;102597.23;1768531;80;21711;-61
2022/02/13 07:44:34;;;;;;;16.65;10.98;;;;;;;1.57;74.64;102609.80;1768626;79;21181;-62
2022/02/13 07:47:41;;;;;;;17.52;11.57;;;;;;;1.65;74.22;102614.41;1711685;82;21177;-61
2022/02/13 07:50:45;;;;;;;17.82;12.07;;;;;;;1.64;73.97;102614.88;1698831;83;21364;-61
2022/02/13 07:53:52;;;;;;;19.77;12.90;;;;;;;1.68;73.97;102612.92;1769905;80;21188;-62
2022/02/13 07:56:57;;;;;;;20.17;11.85;;;;;;;1.73;73.77;102614.97;1735845;82;21358;-60
2022/02/13 08:00:02;;;;;;;16.52;10.65;;;;;;;1.76;73.61;102613.48;1735539;82;21454;-62
2022/02/13 08:03:08;;;;;;;17.07;10.65;;;;;;;1.77;73.38;102616.58;1734654;82;21298;-61
2022/02/13 08:06:15;;;;;;;17.98;10.85;;;;;;;1.79;73.12;102622.34;1687907;84;21612;-62
2022/02/13 08:09:22;;;;;;;18.73;11.73;;;;;;;1.84;73.01;102628.39;1738725;81;21667;-62
2022/02/13 08:12:27;;;;;;;18.48;11.20;;;;;;;1.88;72.75;102623.74;1739024;82;21251;-61
2022/02/13 08:15:34;;;;;;;18.45;11.10;;;;;;;1.94;72.78;102625.71;1739669;81;21208;-62
2022/02/13 08:18:39;;;;;;;16.95;10.98;;;;;;;2.03;72.63;102633.41;1740239;82;21331;-64
2022/02/13 08:21:47;;;;;;;16.25;10.65;;;;;;;2.06;72.26;102612.16;1740650;82;21212;-62
2022/02/13 08:24:53;;;;;;;16.87;10.93;;;;;;;2.08;72.07;102614.33;1752658;80;21409;-62
2022/02/13 08:27:59;;;;;;;18.85;12.18;;;;;;;2.11;71.94;102609.64;1739508;82;21216;-61
2022/02/13 08:31:05;;;;;;;18.48;12.00;;;;;;;2.14;71.73;102605.94;1739765;81;21754;-60
2022/02/13 08:34:10;;;;;;;19.73;11.78;;;;;;;2.20;71.85;102607.02;1740376;81;21244;-60
2022/02/13 08:37:15;;;;;;;19.92;11.38;;;;;;;2.25;71.62;102607.69;1740067;82;21264;-60
2022/02/13 08:40:21;;;;;;;21.73;13.03;;;;;;;2.26;71.44;102613.02;1743428;81;21749;-61
2022/02/13 08:43:27;;;;;;;19.40;11.95;;;;;;;2.33;71.57;102611.78;1731607;82;21220;-61
2022/02/13 08:46:36;;;;;;;18.40;11.12;;;;;;;2.39;71.30;102609.30;1768568;80;21260;-61
2022/02/13 08:49:41;;;;;;;19.05;11.78;;;;;;;2.43;71.06;102610.89;1763388;79;21298;-61
2022/02/13 08:52:47;;;;;;;19.37;11.43;;;;;;;2.47;70.74;102616.58;1769705;80;21189;-61
2022/02/13 08:55:53;;;;;;;22.22;11.63;;;;;;;2.48;70.60;102620.56;1770042;79;21691;-61
2022/02/13 08:58:59;;;;;;;17.67;11.12;;;;;;;2.56;70.70;102621.56;1769273;79;21184;-61
2022/02/13 09:02:04;;;;;;;21.52;11.90;;;;;;;2.63;70.77;102621.20;1769974;80;21592;-61
2022/02/13 09:05:11;;;;;;;19.92;11.48;;;;;;;2.69;70.60;102615.53;1769382;79;21243;-61
2022/02/13 09:08:16;;;;;;;17.15;10.25;;;;;;;2.75;70.34;102608.95;1770336;80;21181;-61
2022/02/13 09:11:21;;;;;;;17.52;10.70;;;;;;;2.79;70.20;102611.92;1769032;79;21253;-61
2022/02/13 09:14:26;;;;;;;17.30;10.55;;;;;;;2.81;69.81;102611.35;1769837;79;21217;-61
2022/02/13 09:17:32;;;;;;;16.48;10.50;;;;;;;2.81;69.75;102611.35;1769141;80;21181;-60
2022/02/13 09:20:38;;;;;;;19.02;11.10;;;;;;;2.84;69.77;102602.63;1748629;80;21291;-61
2022/02/13 09:23:44;;;;;;;16.52;10.10;;;;;;;2.87;69.58;102608.38;1763135;80;21185;-60
2022/02/13 09:26:49;;;;;;;14.50;8.83;;;;;;;2.93;69.66;102606.23;1759926;80;21931;-61
2022/02/13 09:29:55;;;;;;;16.67;10.15;;;;;;;2.95;69.29;102592.63;1756135;81;21354;-61
2022/02/13 09:33:03;;;;;;;51.73;25.72;;;;;;;2.96;69.46;102595.30;1738228;81;21212;-61
2022/02/13 09:36:12;;;;;;;31.37;14.80;;;;;;;3.04;69.54;102597.62;1729862;83;21329;-60
2022/02/13 09:39:18;;;;;;;16.45;10.78;;;;;;;3.08;69.49;102589.75;1736389;81;21296;-61
2022/02/13 09:42:27;;;;;;;14.68;9.40;;;;;;;3.11;69.60;102587.39;1750788;81;21204;-60
2022/02/13 09:45:32;;;;;;;15.45;9.38;;;;;;;3.15;69.38;102586.27;1760768;81;21759;-60
2022/02/13 09:48:38;;;;;;;17.90;10.72;;;;;;;3.14;69.01;102579.97;1769209;81;21264;-60
2022/02/13 09:51:44;;;;;;;15.45;9.63;;;;;;;3.22;68.93;102590.45;1769597;81;21200;-60
2022/02/13 09:54:49;;;;;;;16.95;10.05;;;;;;;3.26;68.61;102579.86;1764831;79;21205;-61
2022/02/13 09:58:03;;;;;;;13.95;9.43;;;;;;;3.31;68.44;102580.05;1769352;80;21349;-60
2022/02/13 10:01:15;;;;;;;16.10;9.28;;;;;;;3.34;68.19;102579.89;1739101;81;21228;-60
2022/02/13 10:04:22;;;;;;;13.22;8.83;;;;;;;3.40;67.98;102571.45;1738978;81;21761;-60
2022/02/13 10:07:28;;;;;;;15.53;9.25;;;;;;;3.47;68.00;102568.85;1738299;82;21188;-60
2022/02/13 10:10:33;;;;;;;16.27;10.18;;;;;;;3.52;68.10;102564.05;1738099;81;21499;-61
2022/02/13 10:13:55;;;;;;;15.15;9.58;;;;;;;3.55;67.53;102562.54;1731718;82;21796;-61
2022/02/13 10:17:00;;;;;;;17.15;10.78;;;;;;;3.60;67.33;102566.40;1738609;82;21235;-61
2022/02/13 10:20:05;;;;;;;18.35;11.18;;;;;;;3.65;67.24;102561.13;1760858;81;21229;-60
2022/02/13 10:23:23;;;;;;;14.03;10.28;;;;;;;3.69;67.21;102553.26;1739257;82;21184;-60
2022/02/13 10:26:27;;;;;;;16.07;9.43;;;;;;;3.74;67.16;102547.09;1739168;82;21184;-60
2022/02/13 10:29:34;;;;;;;15.03;8.75;;;;;;;3.83;66.99;102549.82;1739139;81;21252;-60
2022/02/13 10:32:42;;;;;;;16.93;9.45;;;;;;;3.89;66.70;102535.48;1755957;80;21710;-60
2022/02/13 10:35:47;;;;;;;12.15;8.13;;;;;;;3.96;66.44;102542.34;1731824;81;21193;-59
2022/02/13 10:38:53;;;;;;;13.45;8.40;;;;;;;4.03;65.77;102538.33;1754331;81;21197;-60
2022/02/13 10:41:59;;;;;;;14.53;9.45;;;;;;;4.05;65.59;102533.71;1758423;81;21794;-59
2022/02/13 10:45:23;;;;;;;13.22;8.33;;;;;;;4.14;65.70;102535.03;1765947;80;21594;-59
2022/02/13 10:48:28;;;;;;;12.95;8.20;;;;;;;4.25;65.41;102525.88;1766699;81;21780;-60
2022/02/13 10:51:33;;;;;;;12.33;8.38;;;;;;;4.30;64.59;102531.42;1769224;80;21225;-60
2022/02/13 10:54:41;;;;;;;16.52;9.23;;;;;;;4.34;64.35;102524.01;1770059;80;21566;-60
2022/02/13 10:57:47;;;;;;;15.48;10.55;;;;;;;4.38;64.20;102530.53;1769759;80;21195;-59
2022/02/13 11:00:53;;;;;;;16.25;8.70;;;;;;;4.41;64.32;102518.16;1769481;81;21215;-59
2022/02/13 11:04:04;;;;;;;11.78;7.78;;;;;;;4.50;64.26;102514.07;1753323;79;21835;-60
2022/02/13 11:07:09;;;;;;;14.85;8.25;;;;;;;4.60;63.78;102508.51;1782579;80;21308;-61
2022/02/13 11:10:18;;;;;;;11.70;7.28;;;;;;;4.72;62.89;102511.02;1768036;79;21771;-60
2022/02/13 11:13:24;;;;;;;13.35;8.53;;;;;;;4.80;62.58;102512.34;1770611;80;21189;-61
2022/02/13 11:16:41;;;;;;;14.03;8.00;;;;;;;4.92;62.52;102508.92;1753544;81;21240;-63
2022/02/13 11:19:48;;;;;;;9.28;7.10;;;;;;;4.96;61.62;102510.98;1768146;80;21217;-63
2022/02/13 11:22:53;;;;;;;11.70;7.37;;;;;;;4.97;60.79;102510.89;1756716;80;21232;-61
2022/02/13 11:26:13;;;;;;;11.28;7.10;;;;;;;4.97;60.38;102505.94;1767361;79;21240;-60
2022/02/13 11:29:21;;;;;;;12.80;8.05;;;;;;;4.98;60.01;102498.21;1751984;79;21713;-62
2022/02/13 11:32:48;;;;;;;12.50;7.85;;;;;;;4.96;59.85;102498.30;1761288;81;21184;-61
2022/02/13 11:36:06;;;;;;;13.05;8.78;;;;;;;5.01;59.70;102497.52;1758635;79;21193;-61
2022/02/13 11:39:11;;;;;;;11.05;6.33;;;;;;;5.10;59.68;102487.52;1763989;81;21251;-62
2022/02/13 11:42:29;;;;;;;12.03;6.30;;;;;;;5.21;59.03;102490.47;1763954;81;21754;-62
2022/02/13 11:45:37;;;;;;;14.07;7.12;;;;;;;5.24;58.33;102482.61;1762029;80;21181;-63
2022/02/13 11:48:48;;;;;;;13.68;7.08;;;;;;;5.33;58.03;102477.98;1759975;80;21248;-62
2022/02/13 11:52:02;;;;;;;14.93;7.40;;;;;;;5.53;58.14;102470.89;1751611;80;21184;-64
2022/02/13 11:55:09;;;;;;;13.48;6.95;;;;;;;5.66;57.11;102468.68;1765007;81;21194;-62
2022/02/13 11:58:18;;;;;;;9.55;5.28;;;;;;;5.73;56.94;102463.28;1754219;81;21794;-62
2022/02/13 12:01:48;;;;;;;10.68;5.47;;;;;;;5.84;56.49;102459.45;1748255;81;21197;-62
2022/02/13 12:05:17;;;;;;;8.60;5.05;;;;;;;5.89;54.99;102460.52;1770351;79;21228;-62
2022/02/13 12:08:31;;;;;;;9.00;6.15;;;;;;;5.84;54.46;102449.94;1770495;80;21300;-62
2022/02/13 12:11:45;;;;;;;8.95;4.87;;;;;;;5.93;53.96;102445.78;1770429;80;21189;-62
2022/02/13 12:14:53;;;;;;;6.72;4.15;;;;;;;6.03;53.65;102451.01;1770418;79;21212;-63
2022/02/13 12:18:15;;;;;;;7.78;4.95;;;;;;;6.03;52.56;102441.02;1770171;80;21239;-62
2022/02/13 12:21:20;;;;;;;10.98;5.15;;;;;;;6.06;52.53;102441.30;1769694;81;21540;-62
2022/02/13 12:24:31;;;;;;;9.88;5.87;;;;;;;6.06;52.49;102445.38;1768349;79;21200;-64
2022/02/13 12:27:39;;;;;;;14.73;8.10;;;;;;;6.04;51.99;102437.82;1770040;81;21714;-62
2022/02/13 12:30:57;;;;;;;9.00;5.95;;;;;;;6.02;51.72;102428.88;1770007;79;21216;-62
2022/02/13 12:34:03;;;;;;;10.03;6.10;;;;;;;6.13;51.74;102429.08;1770454;79;21319;-63
2022/02/13 12:37:09;;;;;;;8.53;5.22;;;;;;;6.23;51.35;102432.97;1755926;81;21197;-62
2022/02/13 12:40:30;;;;;;;10.28;5.25;;;;;;;6.31;50.72;102437.39;1768555;80;21477;-62
2022/02/13 12:43:36;;;;;;;8.83;5.08;;;;;;;6.31;50.42;102424.30;1770058;79;21220;-63
2022/02/13 12:46:42;;;;;;;6.78;4.30;;;;;;;6.34;50.00;102415.47;1770228;80;21276;-62
2022/02/13 12:49:48;;;;;;;8.08;4.75;;;;;;;6.42;49.57;102414.96;1770485;81;21718;-62
2022/02/13 12:52:55;;;;;;;6.30;3.90;;;;;;;6.49;48.71;102412.20;1770983;80;21201;-61
2022/02/13 12:56:15;;;;;;;7.67;4.87;;;;;;;6.52;48.39;102408.81;1770256;81;21787;-63
2022/02/13 12:59:14;;;;;;;11.57;5.90;;;;;;;6.51;47.71;102412.98;1769202;81;21226;-63
2022/02/13 13:02:31;;;;;;;10.40;5.78;;;;;;;6.46;47.55;102406.97;1733310;82;21264;-62
2022/02/13 13:05:52;;;;;;;8.43;4.95;;;;;;;6.54;48.01;102416.39;1732902;81;21263;-63
2022/02/13 13:08:58;;;;;;;6.85;3.92;;;;;;;6.61;47.57;102406.83;1733029;83;21560;-63
2022/02/13 13:12:04;;;;;;;8.03;4.58;;;;;;;6.63;46.84;102404.89;1733289;83;21197;-61
2022/02/13 13:15:10;;;;;;;8.25;5.30;;;;;;;6.63;46.75;102408.97;1736480;81;21220;-61
2022/02/13 13:18:15;;;;;;;8.20;4.28;;;;;;;6.67;46.54;102409.17;1757490;81;21263;-63
2022/02/13 13:21:46;;;;;;;6.47;3.58;;;;;;;6.66;45.88;102399.24;1761404;81;21745;-62
2022/02/13 13:24:57;;;;;;;11.85;5.12;;;;;;;6.67;45.69;102397.41;1761565;81;21223;-63
2022/02/13 13:28:15;;;;;;;32.13;13.28;;;;;;;6.69;45.78;102393.59;1759289;81;21190;-63
2022/02/13 13:31:20;;;;;;;14.40;5.97;;;;;;;6.74;45.87;102389.23;1770104;79;21717;-63
2022/02/13 13:34:26;;;;;;;16.65;6.42;;;;;;;6.76;45.92;102390.86;1769974;79;21241;-61
2022/02/13 13:37:43;;;;;;;13.53;6.87;;;;;;;6.82;46.17;102378.20;1770503;80;21192;-62
2022/02/13 13:40:52;;;;;;;26.87;9.95;;;;;;;6.89;46.41;102378.17;1770355;79;21287;-62
2022/02/13 13:43:54;;;;;;;10.00;4.85;;;;;;;6.96;46.31;102368.59;1763683;81;21184;-62
2022/02/13 13:46:59;;;;;;;13.70;5.00;;;;;;;7.00;45.88;102368.80;1739510;82;21221;-61
2022/02/13 13:50:06;;;;;;;15.35;9.50;;;;;;;7.05;45.81;102365.27;1758593;79;21194;-63
2022/02/13 13:53:17;;;;;;;18.40;8.45;;;;;;;7.09;45.62;102361.34;1769194;80;21209;-62
2022/02/13 13:56:25;;;;;;;12.30;6.45;;;;;;;7.08;44.79;102365.06;1765128;81;21194;-63
2022/02/13 13:59:31;;;;;;;12.40;6.10;;;;;;;7.09;44.79;102365.43;1739689;81;21232;-63
2022/02/13 14:02:38;;;;;;;12.33;6.10;;;;;;;7.05;43.82;102368.47;1752419;81;21256;-64
2022/02/13 14:05:45;;;;;;;14.07;5.45;;;;;;;6.98;43.30;102367.13;1765821;81;21795;-60
2022/02/13 14:08:51;;;;;;;9.68;5.92;;;;;;;6.92;43.08;102367.08;1738273;82;21181;-62
2022/02/13 14:11:56;;;;;;;23.25;8.63;;;;;;;6.82;42.82;102363.22;1703759;83;22021;-61
2022/02/13 14:15:01;;;;;;;26.48;11.50;;;;;;;6.74;42.43;102360.14;1715032;82;21272;-62
2022/02/13 14:18:07;;;;;;;14.38;8.03;;;;;;;6.66;41.64;102370.67;1720138;83;21220;-62
2022/02/13 14:21:15;;;;;;;15.68;8.38;;;;;;;6.56;41.49;102364.11;1719949;82;21229;-63
2022/02/13 14:24:23;;;;;;;17.85;9.43;;;;;;;6.49;41.50;102364.59;1694203;83;21225;-63